createdAt,value
2022-09-14T00:04:50.010Z,91.20
2022-09-14T00:07:52.814Z,93.20
2022-09-14T00:10:54.909Z,92.30
2022-09-14T00:14:03.581Z,92.80
2022-09-14T00:17:05.549Z,92.00
2022-09-14T00:20:07.909Z,93.40
2022-09-14T00:23:10.288Z,92.10
2022-09-14T00:26:14.975Z,92.80
2022-09-14T00:29:16.932Z,91.00
2022-09-14T00:32:18.851Z,92.90
2022-09-14T00:35:20.550Z,92.90
2022-09-14T00:38:22.193Z,91.90
2022-09-14T00:41:29.867Z,92.90
2022-09-14T00:44:31.629Z,92.40
2022-09-14T00:47:35.007Z,93.20
2022-09-14T00:50:36.881Z,91.70
2022-09-14T00:53:39.225Z,92.50
2022-09-14T00:56:41.053Z,92.90
2022-09-14T00:59:44.416Z,92.50
2022-09-14T01:02:49.330Z,92.50
2022-09-14T01:06:09.654Z,91.60
2022-09-14T01:09:29.614Z,93.10
2022-09-14T01:12:31.789Z,91.10
2022-09-14T01:15:58.810Z,93.30
2022-09-14T01:19:23.599Z,91.00
2022-09-14T01:22:38.556Z,91.10
2022-09-14T01:25:55.458Z,91.20
2022-09-14T01:29:10.063Z,91.10
2022-09-14T01:32:22.204Z,91.30
2022-09-14T01:35:42.448Z,92.20
2022-09-14T01:38:51.670Z,91.40
2022-09-14T01:41:55.504Z,91.50
2022-09-14T01:45:03.162Z,93.00
2022-09-14T01:48:08.913Z,93.20
2022-09-14T01:51:18.526Z,93.50
2022-09-14T01:54:33.852Z,93.50
2022-09-14T01:57:49.504Z,92.30
2022-09-14T02:00:56.913Z,93.40
2022-09-14T02:04:05.966Z,93.10
2022-09-14T02:07:08.267Z,93.00
2022-09-14T02:10:15.042Z,92.50
2022-09-14T02:13:31.073Z,93.70
2022-09-14T02:16:33.199Z,93.10
2022-09-14T02:19:43.066Z,94.40
2022-09-14T02:22:47.558Z,93.50
2022-09-14T02:25:49.388Z,93.90
2022-09-14T02:28:56.128Z,93.80
2022-09-14T02:32:41.771Z,94.20
2022-09-14T02:35:57.336Z,91.90
2022-09-14T02:39:02.826Z,93.40
2022-09-14T02:42:18.054Z,94.70
2022-09-14T02:46:00.336Z,92.10
2022-09-14T02:49:44.175Z,92.00
2022-09-14T02:52:58.441Z,91.80
2022-09-14T02:56:04.721Z,94.00
2022-09-14T02:59:07.030Z,94.10
2022-09-14T03:02:08.883Z,95.90
2022-09-14T03:05:11.135Z,94.60
2022-09-14T03:08:13.545Z,94.80
2022-09-14T03:11:18.434Z,93.50
2022-09-14T03:14:20.316Z,94.10
2022-09-14T03:17:22.304Z,94.80
2022-09-14T03:20:29.504Z,95.30
2022-09-14T03:23:34.753Z,92.10
2022-09-14T03:26:38.279Z,93.60
2022-09-14T03:29:40.220Z,93.90
2022-09-14T03:32:49.716Z,94.80
2022-09-14T03:35:51.906Z,94.00
2022-09-14T03:38:56.822Z,95.20
2022-09-14T03:41:58.498Z,93.80
2022-09-14T03:45:00.058Z,94.60
2022-09-14T03:54:48.277Z,94.10
2022-09-14T03:57:56.431Z,95.70
2022-09-14T04:01:05.740Z,94.30
2022-09-14T04:04:55.525Z,94.50
2022-09-14T04:08:00.839Z,92.90
2022-09-14T04:11:14.498Z,93.80
2022-09-14T04:14:16.212Z,92.80
2022-09-14T04:17:17.758Z,93.30
2022-09-14T04:20:19.350Z,93.50
2022-09-14T04:23:21.028Z,93.40
2022-09-14T04:26:25.124Z,93.50
2022-09-14T04:29:26.774Z,93.70
2022-09-14T04:32:32.194Z,93.70
2022-09-14T04:35:37.641Z,93.90
2022-09-14T04:38:40.613Z,93.80
2022-09-14T04:41:42.532Z,93.90
2022-09-14T04:44:44.244Z,93.80
2022-09-14T04:47:45.808Z,93.90
2022-09-14T04:50:47.368Z,94.30
2022-09-14T04:53:50.914Z,94.60
2022-09-14T04:56:52.648Z,94.30
2022-09-14T04:59:54.194Z,94.30
2022-09-14T05:02:55.930Z,94.40
2022-09-14T05:06:02.603Z,94.40
2022-09-14T05:09:06.552Z,94.70
2022-09-14T05:12:08.151Z,94.70
2022-09-14T05:15:10.214Z,94.60
2022-09-14T05:18:11.767Z,94.50
2022-09-14T05:21:16.359Z,94.70
2022-09-14T05:24:18.864Z,95.00
2022-09-14T05:27:20.390Z,95.00
2022-09-14T05:30:21.967Z,95.70
2022-09-14T05:33:24.135Z,95.60
2022-09-14T05:36:26.256Z,95.20
2022-09-14T05:39:27.948Z,95.20
2022-09-14T05:42:29.523Z,95.30
2022-09-14T05:45:31.360Z,95.30
2022-09-14T05:48:34.283Z,95.30
2022-09-14T05:51:35.883Z,95.40
2022-09-14T05:54:37.407Z,95.40
2022-09-14T05:57:38.952Z,95.60
2022-09-14T06:00:40.781Z,95.50
2022-09-14T06:03:43.729Z,96.10
2022-09-14T06:06:56.159Z,95.60
2022-09-14T06:10:07.397Z,95.60
2022-09-14T06:13:08.925Z,95.50
2022-09-14T06:16:12.868Z,95.70
2022-09-14T06:19:15.751Z,95.80
2022-09-14T06:22:17.304Z,95.70
2022-09-14T06:25:18.840Z,95.70
2022-09-14T06:28:20.540Z,95.90
2022-09-14T06:31:25.399Z,95.90
2022-09-14T06:34:27.264Z,95.20
2022-09-14T06:37:29.104Z,95.90
2022-09-14T06:40:30.785Z,97.80
2022-09-14T06:43:35.108Z,95.90
2022-09-14T06:46:36.788Z,96.10
2022-09-14T06:49:38.301Z,96.00
2022-09-14T06:52:40.281Z,96.10
2022-09-14T06:55:42.683Z,96.00
2022-09-14T06:58:44.257Z,96.10
2022-09-14T07:01:46.130Z,96.70
2022-09-14T07:04:47.880Z,96.20
2022-09-14T07:07:54.989Z,96.20
2022-09-14T07:10:58.427Z,95.70
2022-09-14T07:14:00.035Z,96.40
2022-09-14T07:17:01.554Z,96.90
2022-09-14T07:20:05.256Z,96.50
2022-09-14T07:23:06.795Z,96.40
2022-09-14T07:26:11.377Z,96.30
2022-09-14T07:29:16.394Z,96.50
2022-09-14T07:32:17.972Z,96.50
2022-09-14T07:35:19.963Z,96.50
2022-09-14T07:38:41.505Z,96.60
2022-09-14T07:41:43.792Z,96.60
2022-09-14T07:44:45.321Z,96.50
2022-09-14T07:47:47.203Z,96.40
2022-09-14T07:50:48.963Z,96.40
2022-09-14T07:53:50.877Z,96.90
2022-09-14T07:56:52.507Z,97.10
2022-09-14T07:59:54.054Z,96.50
2022-09-14T08:02:57.808Z,96.80
2022-09-14T08:06:11.517Z,96.70
2022-09-14T08:09:14.139Z,96.90
2022-09-14T08:12:16.143Z,97.40
2022-09-14T08:15:18.471Z,96.90
2022-09-14T08:18:20.057Z,97.00
2022-09-14T08:21:22.281Z,97.30
2022-09-14T08:24:23.832Z,97.00
2022-09-14T08:27:25.356Z,97.00
2022-09-14T08:30:26.919Z,97.00
2022-09-14T08:33:28.448Z,96.80
2022-09-14T08:36:32.612Z,96.90
2022-09-14T08:39:34.147Z,97.00
2022-09-14T08:42:38.437Z,96.90
2022-09-14T08:45:43.733Z,96.90
2022-09-14T08:48:48.740Z,96.90
2022-09-14T08:51:51.785Z,97.00
2022-09-14T08:54:56.663Z,96.80
2022-09-14T08:58:10.379Z,97.00
2022-09-14T09:01:36.090Z,97.50
2022-09-14T09:05:01.441Z,96.30
2022-09-14T09:08:15.049Z,97.00
2022-09-14T09:11:22.255Z,96.20
2022-09-14T09:14:35.530Z,97.10
2022-09-14T09:17:47.988Z,97.10
2022-09-14T09:20:58.695Z,97.30
2022-09-14T09:24:20.432Z,97.40
2022-09-14T09:27:24.595Z,96.50
2022-09-14T09:30:27.846Z,96.90
2022-09-14T09:33:30.276Z,96.90
2022-09-14T09:36:36.732Z,97.30
2022-09-14T09:39:38.316Z,97.10
2022-09-14T09:43:05.791Z,97.00
2022-09-14T09:46:08.127Z,96.40
2022-09-14T09:49:34.848Z,97.20
2022-09-14T09:52:36.403Z,96.50
2022-09-14T09:55:39.549Z,97.00
2022-09-14T09:58:41.115Z,97.20
2022-09-14T10:01:42.763Z,97.10
2022-09-14T10:05:04.050Z,97.60
2022-09-14T10:08:11.406Z,97.80
2022-09-14T10:11:36.599Z,97.20
2022-09-14T10:14:40.302Z,96.60
2022-09-14T10:18:01.478Z,97.40
2022-09-14T10:21:02.994Z,97.40
2022-09-14T10:24:04.885Z,97.20
2022-09-14T10:27:37.123Z,97.30
2022-09-14T10:30:49.240Z,98.00
2022-09-14T10:33:58.022Z,97.70
2022-09-14T10:37:32.951Z,97.30
2022-09-14T10:40:43.724Z,96.60
2022-09-14T10:44:21.558Z,97.60
2022-09-14T10:47:37.955Z,96.70
2022-09-14T10:50:58.180Z,96.60
2022-09-14T10:54:14.968Z,96.70
2022-09-14T10:57:25.428Z,96.50
2022-09-14T11:00:31.229Z,96.70
2022-09-14T11:04:00.395Z,97.50
2022-09-14T11:07:34.439Z,96.70
2022-09-14T11:10:53.325Z,96.80
2022-09-14T11:13:58.068Z,96.60
2022-09-14T11:17:14.336Z,97.50
2022-09-14T11:20:42.834Z,96.80
2022-09-14T11:23:54.248Z,97.50
2022-09-14T11:26:58.893Z,96.40
2022-09-14T11:30:17.710Z,97.30
2022-09-14T11:33:35.810Z,96.60
2022-09-14T11:36:44.472Z,96.70
2022-09-14T11:39:50.929Z,97.40
2022-09-14T11:43:19.330Z,97.30
2022-09-14T11:46:32.584Z,96.10
2022-09-14T11:49:49.968Z,96.20
2022-09-14T11:53:10.912Z,96.30
2022-09-14T11:56:26.677Z,96.30
2022-09-14T12:03:15.021Z,96.40
2022-09-14T12:06:31.698Z,97.80
2022-09-14T12:09:40.036Z,96.70
2022-09-14T12:12:47.740Z,97.20
2022-09-14T12:16:04.410Z,97.70
2022-09-14T12:19:16.621Z,98.10
2022-09-14T12:22:34.417Z,99.50
2022-09-14T12:25:38.790Z,96.50
2022-09-14T12:28:49.797Z,97.70
2022-09-14T12:31:51.554Z,97.80
2022-09-14T12:35:30.685Z,98.20
2022-09-14T12:38:32.346Z,96.50
2022-09-14T12:41:37.069Z,97.70
2022-09-14T12:44:43.442Z,97.80
2022-09-14T12:47:51.992Z,97.90
2022-09-14T12:50:55.061Z,99.40
2022-09-14T12:54:02.325Z,98.40
2022-09-14T12:57:21.638Z,96.50
2022-09-14T13:00:26.595Z,97.80
2022-09-14T13:03:43.684Z,97.20
2022-09-14T13:06:47.232Z,98.60
2022-09-14T13:09:53.171Z,97.90
2022-09-14T13:12:55.953Z,98.10
2022-09-14T13:16:03.516Z,98.00
2022-09-14T13:19:18.351Z,97.40
2022-09-14T13:22:29.329Z,97.70
2022-09-14T13:25:37.645Z,96.40
2022-09-14T13:28:44.209Z,98.10
2022-09-14T13:31:48.492Z,97.90
2022-09-14T13:34:52.903Z,97.80
2022-09-14T13:37:55.138Z,98.50
2022-09-14T13:41:08.370Z,98.10
2022-09-14T13:53:00.086Z,96.70
2022-09-14T14:00:34.015Z,96.20
2022-09-14T14:24:28.363Z,98.80
2022-09-14T14:31:09.893Z,98.20
2022-09-14T14:34:19.346Z,97.80
2022-09-14T14:37:21.601Z,96.90
2022-09-14T14:40:24.459Z,96.90
2022-09-14T14:43:26.872Z,96.80
2022-09-14T14:46:29.238Z,96.80
2022-09-14T14:49:31.053Z,96.80
2022-09-14T14:52:32.626Z,96.70
2022-09-14T14:55:37.428Z,96.80
2022-09-14T14:58:49.621Z,96.80
2022-09-14T15:01:54.922Z,96.80
2022-09-14T15:04:56.500Z,96.90
2022-09-14T15:07:58.546Z,96.60
2022-09-14T15:11:00.200Z,96.70
2022-09-14T15:14:01.724Z,97.00
2022-09-14T15:17:03.693Z,97.00
2022-09-14T15:20:05.837Z,97.20
2022-09-14T15:23:09.819Z,97.00
2022-09-14T15:26:11.378Z,97.20
2022-09-14T15:29:18.188Z,97.10
2022-09-14T15:32:22.841Z,97.30
2022-09-14T15:35:24.515Z,97.10
2022-09-14T15:38:26.147Z,97.10
2022-09-14T15:41:27.860Z,97.30
2022-09-14T15:44:30.891Z,97.40
2022-09-14T15:47:36.428Z,97.30
2022-09-14T15:50:43.560Z,96.90
2022-09-14T15:53:51.085Z,97.50
2022-09-14T15:56:54.829Z,97.50
2022-09-14T15:59:56.573Z,97.70
2022-09-14T16:02:58.317Z,97.50
2022-09-14T16:05:59.981Z,97.70
2022-09-14T16:09:03.987Z,97.60
2022-09-14T16:12:06.424Z,97.70
2022-09-14T16:15:12.274Z,97.60
2022-09-14T16:18:13.912Z,97.80
2022-09-14T16:21:21.241Z,97.70
2022-09-14T16:24:24.166Z,97.90
2022-09-14T16:27:25.748Z,97.70
2022-09-14T16:30:33.246Z,97.90
2022-09-14T16:33:39.520Z,97.00
2022-09-14T16:36:42.427Z,97.90
2022-09-14T16:39:44.391Z,97.90
2022-09-14T16:42:56.647Z,98.60
2022-09-14T16:46:10.438Z,99.20
2022-09-14T16:49:12.386Z,97.40
2022-09-14T16:52:14.156Z,97.90
2022-09-14T16:55:15.904Z,98.20
2022-09-14T16:58:18.142Z,98.00
2022-09-14T17:01:30.781Z,98.10
2022-09-14T17:04:32.835Z,97.40
2022-09-14T17:07:36.834Z,98.10
2022-09-14T17:10:41.175Z,98.10
2022-09-14T17:13:47.501Z,99.90
2022-09-14T17:16:49.707Z,98.70
2022-09-14T17:19:54.025Z,99.20
2022-09-14T17:22:55.799Z,99.10
2022-09-14T17:26:01.038Z,99.90
2022-09-14T17:29:04.527Z,98.70
2022-09-14T17:32:06.250Z,98.20
2022-09-14T17:35:08.308Z,98.20
2022-09-14T17:38:09.862Z,98.10
2022-09-14T17:41:20.026Z,98.20
2022-09-14T17:44:25.614Z,98.60
2022-09-14T17:47:28.500Z,98.40
2022-09-14T17:50:30.442Z,98.50
2022-09-14T17:53:35.853Z,98.30
2022-09-14T17:56:37.490Z,98.80
2022-09-14T17:59:39.036Z,98.40
2022-09-14T18:02:40.632Z,98.60
2022-09-14T18:05:42.184Z,98.50
2022-09-14T18:08:44.005Z,98.40
2022-09-14T18:11:47.407Z,98.40
2022-09-14T18:14:49.203Z,98.40
2022-09-14T18:17:52.213Z,98.60
2022-09-14T18:20:53.807Z,98.50
2022-09-14T18:23:55.796Z,98.60
2022-09-14T18:26:58.499Z,98.80
2022-09-14T18:30:00.346Z,99.20
2022-09-14T18:33:02.031Z,98.80
2022-09-14T18:36:05.710Z,98.70
2022-09-14T18:39:07.326Z,98.70
2022-09-14T18:42:09.145Z,98.80
2022-09-14T18:45:10.901Z,98.90
2022-09-14T18:48:13.195Z,98.90
2022-09-14T18:51:14.916Z,99.00
2022-09-14T18:54:17.457Z,98.80
2022-09-14T18:57:19.836Z,98.40
2022-09-14T19:00:21.396Z,98.90
2022-09-14T19:03:22.919Z,98.70
2022-09-14T19:06:24.738Z,99.00
2022-09-14T19:09:26.345Z,98.70
2022-09-14T19:12:28.432Z,98.90
2022-09-14T19:15:32.683Z,98.90
2022-09-14T19:18:34.802Z,98.90
2022-09-14T19:21:36.450Z,99.00
2022-09-14T19:24:38.080Z,98.90
2022-09-14T19:27:39.968Z,99.00
2022-09-14T19:30:42.482Z,99.10
2022-09-14T19:33:45.842Z,99.10
2022-09-14T19:36:47.926Z,99.30
2022-09-14T19:39:49.807Z,99.10
2022-09-14T19:42:52.018Z,99.10
2022-09-14T19:45:53.846Z,99.00
2022-09-14T19:48:55.728Z,99.00
2022-09-14T19:51:58.441Z,99.30
2022-09-14T19:55:00.015Z,99.10
2022-09-14T19:58:01.733Z,99.40
2022-09-14T20:01:04.244Z,99.40
2022-09-14T20:04:07.211Z,99.70
2022-09-14T20:07:08.764Z,98.90
2022-09-14T20:10:10.493Z,99.50
2022-09-14T20:13:12.088Z,99.90
2022-09-14T20:16:18.870Z,99.70
2022-09-14T20:19:23.773Z,99.90
2022-09-14T20:22:25.328Z,99.70
2022-09-14T20:25:26.955Z,99.90
2022-09-14T20:28:28.542Z,99.70
2022-09-14T20:31:30.797Z,99.90
2022-09-14T20:34:32.536Z,99.80
2022-09-14T20:37:34.263Z,99.70
2022-09-14T20:40:35.803Z,99.40
2022-09-14T20:43:39.802Z,99.60
2022-09-14T20:46:44.041Z,99.80
2022-09-14T20:49:45.607Z,99.80
2022-09-14T20:52:47.170Z,99.70
2022-09-14T20:55:48.754Z,99.70
2022-09-14T20:58:54.568Z,99.60
2022-09-14T21:01:56.382Z,99.80
2022-09-14T21:04:58.183Z,99.80
2022-09-14T21:07:59.913Z,99.90
2022-09-14T21:11:10.871Z,99.90
2022-09-14T21:14:17.511Z,99.90
2022-09-14T21:17:19.368Z,99.10
2022-09-14T21:20:20.884Z,99.60
2022-09-14T21:23:22.437Z,99.80
2022-09-14T21:26:28.795Z,99.60
2022-09-14T21:29:31.069Z,99.80
2022-09-14T21:32:32.585Z,99.90
2022-09-14T21:35:34.152Z,99.90
2022-09-14T21:38:36.451Z,99.90
2022-09-14T21:41:40.036Z,99.90
2022-09-14T21:44:41.585Z,99.90
2022-09-14T21:47:43.204Z,99.90
2022-09-14T21:50:47.546Z,99.90
2022-09-14T21:53:57.617Z,99.90
2022-09-14T21:56:59.238Z,99.90
2022-09-14T22:00:00.948Z,99.90
2022-09-14T22:03:02.661Z,99.70
2022-09-14T22:06:07.909Z,99.80
2022-09-14T22:09:09.547Z,99.70
2022-09-14T22:12:11.083Z,99.90
2022-09-14T22:15:12.606Z,99.60
2022-09-14T22:18:14.424Z,99.70
2022-09-14T22:21:17.548Z,99.90
2022-09-14T22:24:22.691Z,99.80
2022-09-14T22:27:24.332Z,99.70
2022-09-14T22:30:25.956Z,99.90
2022-09-14T22:33:27.633Z,99.70
2022-09-14T22:36:29.657Z,99.50
2022-09-14T22:39:31.700Z,99.90
2022-09-14T22:42:33.615Z,99.90
2022-09-14T22:45:35.265Z,99.80
2022-09-14T22:48:37.836Z,99.90
2022-09-14T22:51:39.838Z,99.80
2022-09-14T22:54:41.522Z,99.80
2022-09-14T22:57:43.232Z,99.90
2022-09-14T23:00:44.980Z,99.80
2022-09-14T23:03:46.742Z,99.90
2022-09-14T23:06:48.653Z,99.90
2022-09-14T23:09:50.233Z,99.90
2022-09-14T23:12:52.108Z,99.90
2022-09-14T23:15:53.649Z,99.90
2022-09-14T23:18:58.218Z,99.90
2022-09-14T23:22:01.339Z,99.90
2022-09-14T23:25:03.646Z,99.90
2022-09-14T23:28:06.728Z,99.90
2022-09-14T23:31:08.346Z,99.90
2022-09-14T23:34:10.325Z,99.90
2022-09-14T23:37:12.245Z,99.90
2022-09-14T23:40:13.996Z,99.90
2022-09-14T23:43:17.349Z,99.90
2022-09-14T23:46:19.753Z,99.90
2022-09-14T23:49:21.329Z,99.90
2022-09-14T23:52:22.865Z,99.90
2022-09-14T23:55:24.999Z,99.90
2022-09-14T23:58:26.838Z,99.90
